Time;durP1;ratioP1;P1;durP2;ratioP2;P2;SDS_P1;SDS_P2;PMS_P1;PMS_P2;Temp;Humidity;BMP_temperature;BMP_pressure;BME280_temperature;BME280_humidity;BME280_pressure;Samples;Min_cycle;Max_cycle;Signal;HPM_P1;HPM_P2
2022/11/02 00:01:51;;;;;;;4.50;1.20;;;10.00;99.90;;;;;;4998454;28;20176;-90
2022/11/02 00:04:17;;;;;;;7.03;0.98;;;10.00;99.90;;;;;;4997053;28;20202;-89
2022/11/02 00:06:43;;;;;;;9.23;1.60;;;10.00;99.90;;;;;;4997969;28;20176;-89
2022/11/02 00:09:09;;;;;;;5.82;0.88;;;10.00;99.90;;;;;;4998041;28;20219;-90
2022/11/02 00:11:37;;;;;;;5.57;1.10;;;10.00;99.90;;;;;;4996697;28;20566;-89
2022/11/02 00:14:02;;;;;;;6.88;1.20;;;10.10;99.90;;;;;;5001472;28;20175;-90
2022/11/02 00:16:29;;;;;;;6.32;1.35;;;10.10;99.90;;;;;;5016006;28;20582;-89
2022/11/02 00:18:58;;;;;;;7.45;1.05;;;10.20;99.90;;;;;;5016491;28;20183;-89
2022/11/02 00:21:25;;;;;;;7.00;1.33;;;10.20;99.90;;;;;;5016922;28;20222;-89
2022/11/02 00:23:52;;;;;;;8.90;1.67;;;10.30;99.90;;;;;;5017153;28;20183;-88
2022/11/02 00:26:18;;;;;;;5.05;1.08;;;10.30;99.90;;;;;;5016620;28;20187;-87
2022/11/02 00:28:44;;;;;;;3.95;1.10;;;10.40;99.90;;;;;;5016590;28;20175;-88
2022/11/02 00:31:10;;;;;;;6.55;1.35;;;10.50;99.90;;;;;;5017244;28;20179;-86
2022/11/02 00:33:36;;;;;;;5.05;1.13;;;10.50;99.90;;;;;;5017088;28;20525;-90
2022/11/02 00:36:01;;;;;;;4.25;1.13;;;10.50;99.90;;;;;;5015816;28;20178;-88
2022/11/02 00:38:27;;;;;;;7.43;1.48;;;10.60;99.90;;;;;;5015681;28;20676;-89
2022/11/02 00:40:53;;;;;;;10.75;3.42;;;10.60;99.90;;;;;;5015536;28;20175;-87
2022/11/02 00:43:18;;;;;;;5.38;1.55;;;10.60;99.90;;;;;;5007508;28;20267;-89
2022/11/02 00:45:44;;;;;;;4.90;1.50;;;10.60;99.90;;;;;;5016858;28;20182;-90
2022/11/02 00:48:10;;;;;;;6.55;1.23;;;10.60;99.90;;;;;;5015417;28;20512;-88
2022/11/02 00:50:35;;;;;;;6.85;1.50;;;10.60;99.90;;;;;;5015717;28;20198;-89
2022/11/02 00:53:02;;;;;;;7.30;1.67;;;10.60;99.90;;;;;;5015628;28;20175;-90
2022/11/02 00:55:28;;;;;;;7.53;1.70;;;10.60;99.90;;;;;;5015864;28;20189;-89
2022/11/02 00:57:53;;;;;;;8.55;1.88;;;10.70;99.90;;;;;;5016182;28;20207;-89
2022/11/02 01:00:19;;;;;;;5.15;1.60;;;10.70;99.90;;;;;;5016662;28;20226;-89
2022/11/02 01:02:47;;;;;;;6.88;1.88;;;10.80;99.90;;;;;;5016520;28;20179;-86
2022/11/02 01:05:13;;;;;;;8.50;1.90;;;10.80;99.90;;;;;;5016378;28;20198;-90
2022/11/02 01:07:39;;;;;;;8.75;1.58;;;10.70;99.90;;;;;;5016510;28;20176;-88
2022/11/02 01:10:09;;;;;;;7.25;1.63;;;10.70;99.90;;;;;;5016382;28;20168;-90
2022/11/02 01:12:39;;;;;;;13.82;1.65;;;10.70;99.90;;;;;;5013608;28;20212;-91
2022/11/02 01:15:09;;;;;;;6.75;1.75;;;10.70;99.90;;;;;;4995252;28;20263;-88
2022/11/02 01:17:35;;;;;;;11.93;2.22;;;10.70;99.90;;;;;;4996797;28;20208;-91
2022/11/02 01:20:01;;;;;;;15.23;1.85;;;10.70;99.90;;;;;;4996760;28;20243;-90
2022/11/02 01:22:27;;;;;;;6.97;1.48;;;10.80;99.90;;;;;;4996741;28;20792;-89
2022/11/02 01:24:53;;;;;;;7.45;1.80;;;10.80;99.90;;;;;;4995521;28;20179;-90
2022/11/02 01:27:18;;;;;;;9.55;2.10;;;10.80;99.90;;;;;;4995545;28;20262;-91
2022/11/02 01:29:44;;;;;;;5.93;1.70;;;10.80;99.90;;;;;;4996418;28;20171;-91
2022/11/02 01:32:10;;;;;;;9.35;1.83;;;10.80;99.90;;;;;;5007281;28;20197;-89
2022/11/02 01:34:37;;;;;;;8.35;1.85;;;10.80;99.90;;;;;;5016130;28;20172;-91
2022/11/02 01:37:03;;;;;;;7.68;1.77;;;10.80;99.90;;;;;;5015011;28;20549;-90
2022/11/02 01:39:28;;;;;;;10.38;2.03;;;10.80;99.90;;;;;;5016295;28;20163;-91
2022/11/02 01:41:54;;;;;;;11.15;2.38;;;10.70;99.90;;;;;;5016067;28;20171;-90
2022/11/02 01:44:32;;;;;;;13.05;1.63;;;10.70;99.90;;;;;;5015340;28;20250;-90
2022/11/02 01:47:04;;;;;;;5.00;1.58;;;10.70;99.90;;;;;;5015658;28;20178;-89
2022/11/02 01:49:33;;;;;;;11.45;1.90;;;10.70;99.90;;;;;;5015624;28;20194;-90
2022/11/02 01:52:02;;;;;;;8.65;1.35;;;10.70;99.90;;;;;;5014509;28;20185;-89
2022/11/02 01:54:36;;;;;;;8.45;1.50;;;10.80;99.90;;;;;;5015690;28;20183;-90
2022/11/02 01:57:09;;;;;;;5.35;1.40;;;10.80;99.90;;;;;;5014320;28;20206;-89
2022/11/02 01:59:43;;;;;;;8.35;1.45;;;10.80;99.90;;;;;;5014243;28;20225;-91
2022/11/02 02:02:18;;;;;;;12.32;1.70;;;10.80;99.90;;;;;;5013782;28;20609;-88
2022/11/02 02:04:48;;;;;;;10.45;1.55;;;10.80;99.90;;;;;;5013810;28;20679;-89
2022/11/02 02:07:14;;;;;;;11.30;1.67;;;10.80;99.90;;;;;;5013930;28;20768;-86
2022/11/02 02:09:40;;;;;;;9.75;1.70;;;10.80;99.90;;;;;;5014284;28;20186;-88
2022/11/02 02:12:06;;;;;;;9.65;1.83;;;10.90;99.90;;;;;;5015402;28;20258;-89
2022/11/02 02:14:33;;;;;;;15.10;2.13;;;11.00;99.90;;;;;;5004696;28;20263;-90
2022/11/02 02:17:25;;;;;;;9.77;1.55;;;11.00;99.90;;;;;;4995080;28;20235;-90
2022/11/02 02:20:09;;;;;;;9.35;1.67;;;11.00;99.90;;;;;;4995286;28;20164;-87
2022/11/02 02:23:00;;;;;;;8.77;1.77;;;11.00;99.90;;;;;;4995604;28;20251;-86
2022/11/02 02:25:44;;;;;;;8.48;1.55;;;11.00;99.90;;;;;;4995311;28;20179;-90
2022/11/02 02:28:30;;;;;;;11.93;1.90;;;11.00;99.90;;;;;;4993791;28;20172;-89
2022/11/02 02:31:00;;;;;;;11.85;1.65;;;11.10;99.90;;;;;;4995500;28;20191;-87
2022/11/02 02:33:37;;;;;;;6.75;1.85;;;11.10;99.90;;;;;;4994989;28;20168;-87
2022/11/02 02:36:09;;;;;;;12.25;2.05;;;11.10;99.90;;;;;;4993913;28;20242;-89
2022/11/02 02:38:48;;;;;;;7.93;2.05;;;11.10;99.90;;;;;;4995233;28;20513;-88
2022/11/02 02:41:28;;;;;;;10.63;2.17;;;11.10;99.90;;;;;;4995225;28;20595;-89
2022/11/02 02:44:01;;;;;;;7.78;1.75;;;11.10;99.90;;;;;;4997167;28;20183;-88
2022/11/02 02:46:39;;;;;;;9.35;1.77;;;11.20;99.90;;;;;;5013586;28;20209;-90
2022/11/02 02:49:10;;;;;;;10.57;2.10;;;11.10;99.90;;;;;;5013711;28;20183;-88
2022/11/02 02:51:37;;;;;;;7.07;1.73;;;11.20;99.90;;;;;;5014706;28;20168;-89
2022/11/02 02:54:10;;;;;;;9.27;2.20;;;11.20;99.90;;;;;;5014854;28;20508;-88
2022/11/02 02:56:46;;;;;;;11.30;1.88;;;11.10;99.90;;;;;;5013741;28;20548;-85
2022/11/02 02:59:35;;;;;;;9.95;2.25;;;11.20;99.90;;;;;;5014299;28;20167;-87
2022/11/02 03:02:08;;;;;;;19.50;2.38;;;11.20;99.90;;;;;;5014832;28;20506;-90
2022/11/02 03:04:35;;;;;;;8.30;1.75;;;11.20;99.90;;;;;;5014895;28;20246;-90
2022/11/02 03:07:02;;;;;;;9.77;2.13;;;11.20;99.90;;;;;;5013354;28;20194;-88
2022/11/02 03:09:33;;;;;;;9.77;1.90;;;11.20;99.90;;;;;;5013519;28;20206;-89
2022/11/02 03:12:21;;;;;;;13.63;2.33;;;11.20;99.90;;;;;;5014753;28;20167;-90
2022/11/02 03:15:02;;;;;;;10.70;1.65;;;11.30;99.90;;;;;;5004190;28;20212;-90
2022/11/02 03:18:00;;;;;;;10.60;2.17;;;11.30;99.90;;;;;;4998895;28;20215;-86
2022/11/02 03:20:49;;;;;;;6.78;1.90;;;11.20;99.90;;;;;;4998699;28;20274;-87
2022/11/02 03:23:49;;;;;;;13.23;2.33;;;11.30;99.90;;;;;;4998553;28;20180;-89
2022/11/02 03:26:17;;;;;;;12.95;2.03;;;11.30;99.90;;;;;;5000939;28;20578;-89
2022/11/02 03:29:08;;;;;;;8.98;1.90;;;11.30;99.90;;;;;;5017876;28;20175;-89
2022/11/02 03:31:53;;;;;;;13.55;1.73;;;11.30;99.90;;;;;;5016580;28;20656;-88
2022/11/02 03:34:24;;;;;;;10.38;1.48;;;11.30;99.90;;;;;;5017549;28;20241;-89
2022/11/02 03:37:14;;;;;;;9.68;2.08;;;11.40;99.90;;;;;;5016520;28;20210;-88
2022/11/02 03:39:56;;;;;;;8.48;1.83;;;11.40;99.90;;;;;;5016607;28;20220;-88
2022/11/02 03:42:26;;;;;;;8.43;1.27;;;11.40;99.90;;;;;;5017682;28;20163;-89
2022/11/02 03:45:05;;;;;;;6.70;1.40;;;11.50;99.90;;;;;;5004424;28;20176;-84
2022/11/02 03:47:34;;;;;;;10.20;1.80;;;11.60;99.90;;;;;;4996451;28;20175;-89
2022/11/02 03:50:02;;;;;;;9.38;2.00;;;11.60;99.90;;;;;;4997800;28;20223;-90
2022/11/02 03:52:31;;;;;;;12.40;1.48;;;11.70;99.90;;;;;;4997870;28;20183;-86
2022/11/02 03:55:06;;;;;;;8.50;1.42;;;11.70;99.90;;;;;;4997623;28;20184;-89
2022/11/02 03:57:38;;;;;;;7.57;1.58;;;11.70;99.90;;;;;;5002326;28;20198;-88
2022/11/02 04:00:15;;;;;;;9.00;1.75;;;11.70;99.90;;;;;;5015757;28;20183;-89
2022/11/02 04:02:48;;;;;;;9.95;1.40;;;11.80;99.90;;;;;;5017111;28;20171;-87
2022/11/02 04:05:14;;;;;;;8.35;1.77;;;11.80;99.90;;;;;;5017805;28;20167;-90
2022/11/02 04:10:28;;;;;;;11.07;1.55;;;11.90;99.90;;;;;;5017621;28;20179;-90
2022/11/02 04:15:38;;;;;;;9.25;1.63;;;11.90;99.90;;;;;;4999383;28;20709;-87
2022/11/02 04:20:50;;;;;;;8.98;1.50;;;11.80;99.90;;;;;;4997464;28;20251;-89
2022/11/02 04:26:03;;;;;;;9.30;1.70;;;11.80;99.90;;;;;;4997474;28;20206;-87
2022/11/02 04:28:28;;;;;;;10.93;1.30;;;11.90;99.90;;;;;;4996337;28;20180;-89
2022/11/02 04:30:56;;;;;;;6.78;1.40;;;11.90;99.90;;;;;;4995958;28;20185;-90
2022/11/02 04:33:31;;;;;;;8.02;1.40;;;11.80;99.90;;;;;;4997413;28;20180;-90
2022/11/02 04:36:07;;;;;;;8.10;1.70;;;11.80;99.90;;;;;;4997310;28;20160;-89
2022/11/02 04:38:39;;;;;;;8.75;1.48;;;11.80;99.90;;;;;;4996227;28;20249;-89
2022/11/02 04:43:54;;;;;;;12.13;1.67;;;11.80;99.90;;;;;;4997957;28;20650;-89
2022/11/02 04:46:23;;;;;;;14.77;1.63;;;11.80;99.90;;;;;;4996723;28;20179;-89
2022/11/02 04:48:49;;;;;;;6.63;1.60;;;11.90;99.90;;;;;;4996605;28;20168;-86
2022/11/02 04:51:15;;;;;;;8.85;1.52;;;11.80;99.90;;;;;;4995573;28;20179;-88
2022/11/02 04:53:40;;;;;;;4.68;1.27;;;11.90;99.90;;;;;;4995454;28;20184;-89
2022/11/02 04:56:07;;;;;;;6.47;1.50;;;11.90;99.90;;;;;;4996606;28;20505;-87
2022/11/02 04:58:34;;;;;;;6.18;1.40;;;11.90;99.90;;;;;;4996521;28;20211;-89
2022/11/02 05:01:27;;;;;;;11.70;1.58;;;11.90;99.90;;;;;;4995453;28;20258;-87
2022/11/02 05:03:54;;;;;;;10.68;1.55;;;11.90;99.90;;;;;;4994952;28;20258;-88
2022/11/02 05:06:21;;;;;;;5.05;1.20;;;12.00;99.90;;;;;;4996216;28;20611;-85
2022/11/02 05:08:47;;;;;;;9.77;1.35;;;12.00;99.90;;;;;;4996565;28;20172;-90
2022/11/02 05:11:13;;;;;;;11.65;1.35;;;12.00;99.90;;;;;;4996540;28;20178;-86
2022/11/02 05:13:40;;;;;;;8.90;1.30;;;12.00;99.90;;;;;;4995523;28;20192;-87
2022/11/02 05:16:07;;;;;;;9.32;1.40;;;11.90;99.90;;;;;;4994623;28;20202;-86
2022/11/02 05:18:33;;;;;;;5.55;1.60;;;12.00;99.90;;;;;;4996044;28;20247;-86
2022/11/02 05:21:00;;;;;;;13.68;1.25;;;11.90;99.90;;;;;;4995927;28;20266;-86
2022/11/02 05:23:27;;;;;;;12.98;1.77;;;11.90;99.90;;;;;;4996115;28;20190;-87
2022/11/02 05:26:04;;;;;;;7.13;1.30;;;11.80;99.90;;;;;;4995197;28;20267;-86
2022/11/02 05:28:30;;;;;;;14.88;1.95;;;11.80;99.90;;;;;;4996077;28;20199;-91
2022/11/02 05:30:58;;;;;;;9.07;1.48;;;11.90;99.90;;;;;;4996293;28;20588;-89
2022/11/02 05:33:24;;;;;;;8.35;1.42;;;11.80;99.90;;;;;;4996020;28;20258;-89
2022/11/02 05:35:55;;;;;;;9.88;1.55;;;11.80;99.90;;;;;;4994360;28;20653;-90
2022/11/02 05:38:20;;;;;;;7.28;1.33;;;11.80;99.90;;;;;;4996133;28;20235;-87
2022/11/02 05:40:51;;;;;;;11.55;1.48;;;11.70;99.90;;;;;;4995708;28;20211;-88
2022/11/02 05:43:17;;;;;;;6.78;1.38;;;11.70;99.90;;;;;;4995628;28;20195;-83
2022/11/02 05:45:42;;;;;;;10.48;1.38;;;11.70;99.90;;;;;;4995394;28;20242;-87
2022/11/02 05:48:09;;;;;;;9.32;1.55;;;11.60;99.90;;;;;;4994388;28;20186;-88
2022/11/02 05:50:35;;;;;;;11.63;1.23;;;11.60;99.90;;;;;;4994439;28;20172;-88
2022/11/02 05:53:00;;;;;;;7.60;1.55;;;11.60;99.90;;;;;;4995585;28;20546;-87
2022/11/02 05:55:26;;;;;;;7.18;1.67;;;11.60;99.90;;;;;;4995591;28;20187;-89
2022/11/02 05:57:53;;;;;;;11.00;1.77;;;11.60;99.90;;;;;;4994315;28;20726;-85
2022/11/02 06:00:21;;;;;;;6.15;1.55;;;11.50;99.90;;;;;;4994542;28;20172;-85
2022/11/02 06:02:47;;;;;;;6.03;1.58;;;11.50;99.90;;;;;;4995641;28;20621;-86
2022/11/02 06:05:13;;;;;;;7.75;1.30;;;11.50;99.90;;;;;;4995972;28;20226;-89
2022/11/02 06:07:40;;;;;;;6.45;1.60;;;11.40;99.90;;;;;;4994299;28;20274;-87
2022/11/02 06:10:06;;;;;;;10.05;1.75;;;11.40;99.90;;;;;;4994219;28;20550;-86
2022/11/02 06:12:32;;;;;;;10.90;1.90;;;11.40;99.90;;;;;;4994573;28;20175;-91
2022/11/02 06:14:58;;;;;;;8.25;1.75;;;11.50;99.90;;;;;;5007391;28;20240;-90
2022/11/02 06:17:23;;;;;;;7.15;1.92;;;11.40;99.90;;;;;;5013598;28;20261;-87
2022/11/02 06:19:49;;;;;;;11.43;2.08;;;11.40;99.90;;;;;;5014905;28;20174;-87
2022/11/02 06:22:15;;;;;;;9.02;2.17;;;11.40;99.90;;;;;;5014866;28;20563;-87
2022/11/02 06:24:41;;;;;;;12.98;2.05;;;11.40;99.90;;;;;;5015010;28;20206;-87
2022/11/02 06:27:07;;;;;;;10.77;2.20;;;11.40;99.90;;;;;;5014709;28;20203;-87
2022/11/02 06:29:33;;;;;;;8.93;2.15;;;11.30;99.90;;;;;;5014462;28;20174;-90
2022/11/02 06:31:58;;;;;;;8.45;1.92;;;11.40;99.90;;;;;;5013623;28;20179;-88
2022/11/02 06:34:24;;;;;;;8.93;2.05;;;11.40;99.90;;;;;;5014901;28;20194;-90
2022/11/02 06:36:56;;;;;;;10.52;2.00;;;11.40;99.90;;;;;;5007693;28;20212;-90
2022/11/02 06:39:21;;;;;;;8.13;1.85;;;11.40;99.90;;;;;;4995169;28;20171;-86
2022/11/02 06:41:47;;;;;;;8.70;1.70;;;11.30;99.90;;;;;;4992836;28;20218;-87
2022/11/02 06:44:13;;;;;;;9.35;1.83;;;11.30;99.90;;;;;;4999659;28;20191;-86
2022/11/02 06:46:40;;;;;;;9.60;2.10;;;11.30;99.90;;;;;;4995146;28;20176;-89
2022/11/02 06:49:05;;;;;;;7.45;2.03;;;11.30;99.90;;;;;;4995592;28;20191;-89
2022/11/02 06:51:31;;;;;;;10.07;1.55;;;11.30;99.90;;;;;;4999242;28;20168;-90
2022/11/02 06:53:56;;;;;;;13.13;1.85;;;11.30;99.90;;;;;;4997538;28;20525;-90
2022/11/02 06:56:22;;;;;;;7.38;1.80;;;11.30;99.90;;;;;;4998803;28;20682;-87
2022/11/02 06:58:49;;;;;;;8.73;1.85;;;11.30;99.90;;;;;;4997096;28;20195;-88
2022/11/02 07:01:14;;;;;;;6.63;1.63;;;11.40;99.90;;;;;;4999242;28;20195;-88
2022/11/02 07:03:40;;;;;;;12.52;1.70;;;11.30;99.90;;;;;;4997613;28;20257;-88
2022/11/02 07:06:06;;;;;;;11.10;2.08;;;11.30;99.90;;;;;;4998811;28;20187;-90
2022/11/02 07:08:32;;;;;;;7.45;1.70;;;11.30;99.90;;;;;;4998815;28;20187;-90
2022/11/02 07:10:57;;;;;;;9.93;1.75;;;11.40;99.90;;;;;;4997950;28;20168;-92
2022/11/02 07:13:23;;;;;;;9.40;2.00;;;11.50;99.90;;;;;;4998216;28;20619;-87
2022/11/02 07:15:53;;;;;;;8.90;1.85;;;11.50;99.90;;;;;;4998957;28;20615;-89
2022/11/02 07:18:21;;;;;;;6.00;1.50;;;11.50;99.90;;;;;;4998425;28;20650;-92
2022/11/02 07:20:46;;;;;;;7.75;1.98;;;11.50;99.90;;;;;;4997214;28;20231;-89
2022/11/02 07:23:12;;;;;;;10.13;1.90;;;11.60;99.90;;;;;;4998463;28;20188;-87
2022/11/02 07:25:38;;;;;;;11.73;2.10;;;11.70;99.90;;;;;;4997290;28;20177;-87
2022/11/02 07:28:04;;;;;;;9.27;1.60;;;11.70;99.90;;;;;;4998091;28;20168;-90
2022/11/02 07:30:32;;;;;;;6.57;1.52;;;11.70;99.90;;;;;;4997329;28;20184;-89
2022/11/02 07:32:58;;;;;;;7.40;1.88;;;11.70;99.90;;;;;;4997914;28;20315;-91
2022/11/02 07:35:23;;;;;;;12.63;1.88;;;11.70;99.90;;;;;;4979708;28;20240;-86
2022/11/02 07:38:01;;;;;;;6.72;1.70;;;11.70;99.90;;;;;;4979790;28;20211;-85
2022/11/02 07:40:28;;;;;;;12.45;1.60;;;11.70;99.90;;;;;;4987993;28;20196;-89
2022/11/02 07:42:54;;;;;;;4.38;1.50;;;11.80;99.90;;;;;;4996746;28;20584;-87
2022/11/02 07:45:21;;;;;;;11.63;1.33;;;11.70;99.90;;;;;;5014065;28;20180;-88
2022/11/02 07:47:48;;;;;;;9.68;1.60;;;11.80;99.90;;;;;;5015195;28;20523;-89
2022/11/02 07:50:17;;;;;;;11.02;1.73;;;11.80;99.90;;;;;;4996780;28;20195;-88
2022/11/02 07:52:48;;;;;;;5.65;1.67;;;11.80;99.90;;;;;;4997069;28;20190;-90
2022/11/02 07:55:15;;;;;;;7.63;1.70;;;11.70;99.90;;;;;;4996697;28;20235;-91
2022/11/02 07:57:42;;;;;;;7.82;1.83;;;11.80;99.90;;;;;;4998192;28;20206;-90
2022/11/02 08:00:10;;;;;;;10.38;1.60;;;11.70;99.90;;;;;;4997181;28;20168;-86
2022/11/02 08:02:36;;;;;;;10.10;1.95;;;11.70;99.90;;;;;;4991103;28;20180;-86
2022/11/02 08:05:05;;;;;;;3.90;1.17;;;11.70;99.90;;;;;;4988272;28;20172;-87
2022/11/02 08:07:31;;;;;;;13.95;1.80;;;11.80;99.90;;;;;;4984058;28;20176;-84
2022/11/02 08:09:56;;;;;;;7.03;1.50;;;11.80;99.90;;;;;;4982486;28;20487;-85
2022/11/02 08:12:22;;;;;;;9.65;2.50;;;11.90;99.90;;;;;;4976859;28;20184;-87
2022/11/02 08:14:48;;;;;;;6.18;1.15;;;12.10;99.90;;;;;;4990090;28;20263;-88
2022/11/02 08:17:13;;;;;;;10.95;1.52;;;12.20;99.90;;;;;;4996192;28;20254;-86
2022/11/02 08:19:39;;;;;;;5.65;1.60;;;12.20;99.90;;;;;;4997781;28;20245;-89
2022/11/02 08:22:05;;;;;;;7.85;1.60;;;12.20;99.90;;;;;;4997468;28;20230;-90
2022/11/02 08:24:31;;;;;;;10.95;1.67;;;12.20;99.90;;;;;;4996946;28;20172;-89
2022/11/02 08:26:56;;;;;;;8.80;1.83;;;12.20;99.90;;;;;;4996210;28;20172;-88
2022/11/02 08:29:22;;;;;;;6.75;1.58;;;12.30;99.90;;;;;;4994341;28;20190;-88
2022/11/02 08:31:48;;;;;;;7.53;1.60;;;12.30;99.90;;;;;;4985516;28;20176;-90
2022/11/02 08:34:13;;;;;;;11.20;1.75;;;12.30;99.90;;;;;;4976366;28;20191;-89
2022/11/02 08:36:39;;;;;;;6.00;1.40;;;12.40;99.90;;;;;;4989233;28;20203;-89
2022/11/02 08:39:06;;;;;;;9.27;1.60;;;12.50;99.90;;;;;;4996171;28;20180;-87
2022/11/02 08:41:31;;;;;;;8.50;1.73;;;12.60;99.90;;;;;;4997381;28;20248;-87
2022/11/02 08:43:57;;;;;;;6.03;1.80;;;12.70;99.90;;;;;;4997544;28;20577;-87
2022/11/02 08:46:23;;;;;;;12.68;1.67;;;12.60;99.90;;;;;;4996305;28;20180;-87
2022/11/02 08:48:58;;;;;;;7.10;1.33;;;12.50;99.90;;;;;;4993237;28;20517;-90
2022/11/02 08:51:24;;;;;;;8.88;1.60;;;12.50;99.90;;;;;;4994032;28;20201;-90
2022/11/02 08:53:50;;;;;;;9.68;1.60;;;12.50;99.90;;;;;;4976329;28;20219;-86
2022/11/02 08:56:16;;;;;;;12.07;2.08;;;12.60;99.90;;;;;;4976179;28;20231;-89
2022/11/02 08:58:42;;;;;;;7.53;1.85;;;12.60;99.90;;;;;;4977111;28;20212;-90
2022/11/02 09:01:08;;;;;;;9.13;1.73;;;12.70;99.90;;;;;;4976538;28;20181;-91
2022/11/02 09:03:34;;;;;;;12.05;2.10;;;12.70;99.90;;;;;;4992453;28;20648;-92
2022/11/02 09:06:01;;;;;;;8.45;1.55;;;12.70;99.90;;;;;;5015734;28;20557;-91
2022/11/02 09:08:28;;;;;;;8.23;1.92;;;12.70;99.90;;;;;;5016572;28;20186;-90
2022/11/02 09:10:58;;;;;;;5.07;1.63;;;12.70;99.90;;;;;;5014325;28;20176;-92
2022/11/02 09:13:24;;;;;;;8.68;1.55;;;12.80;99.90;;;;;;5015157;28;20186;-93
2022/11/02 09:15:56;;;;;;;7.50;1.92;;;12.90;99.90;;;;;;5016381;28;20491;-87
2022/11/02 09:18:22;;;;;;;8.30;1.70;;;12.90;99.90;;;;;;5014854;28;20559;-87
2022/11/02 09:20:48;;;;;;;8.30;1.80;;;12.90;99.90;;;;;;4999324;28;20232;-90
2022/11/02 09:23:19;;;;;;;4.53;1.48;;;13.00;99.90;;;;;;4996485;28;20645;-90
2022/11/02 09:25:45;;;;;;;4.90;1.27;;;13.00;99.90;;;;;;4996702;28;20172;-89
2022/11/02 09:28:12;;;;;;;8.57;1.75;;;13.00;99.90;;;;;;4995496;28;20276;-88
2022/11/02 09:30:38;;;;;;;9.70;1.98;;;13.00;99.90;;;;;;4996292;28;20187;-92
2022/11/02 09:33:05;;;;;;;7.80;1.38;;;12.90;99.90;;;;;;4996734;28;20168;-90
2022/11/02 09:35:36;;;;;;;6.82;1.40;;;13.00;99.90;;;;;;4997240;28;20198;-93
2022/11/02 09:38:02;;;;;;;7.03;1.88;;;13.00;99.90;;;;;;4996051;28;20202;-91
2022/11/02 09:40:34;;;;;;;13.10;1.85;;;13.10;99.90;;;;;;4995165;28;20172;-90
2022/11/02 09:43:07;;;;;;;8.45;1.52;;;13.10;99.90;;;;;;4996434;28;20168;-91
2022/11/02 09:45:36;;;;;;;6.00;1.40;;;13.10;99.90;;;;;;5012897;28;20175;-91
2022/11/02 09:48:09;;;;;;;5.53;1.40;;;13.10;99.90;;;;;;5004882;28;20204;-88
2022/11/02 09:50:43;;;;;;;7.30;1.52;;;13.10;99.90;;;;;;4996014;28;20176;-90
2022/11/02 09:53:22;;;;;;;6.72;1.67;;;13.10;99.90;;;;;;4992977;28;20234;-90
2022/11/02 09:55:55;;;;;;;6.30;1.50;;;13.10;99.90;;;;;;4995935;28;20179;-92
2022/11/02 09:58:34;;;;;;;9.07;1.90;;;13.20;99.90;;;;;;4981411;28;20643;-91
2022/11/02 10:01:12;;;;;;;12.95;1.40;;;13.30;99.90;;;;;;4989403;28;20258;-89
2022/11/02 10:03:50;;;;;;;8.35;1.80;;;13.40;99.90;;;;;;4994581;28;20194;-93
2022/11/02 10:06:21;;;;;;;10.45;1.63;;;13.50;99.90;;;;;;4991032;28;20207;-90
2022/11/02 10:08:48;;;;;;;8.65;1.63;;;13.50;99.90;;;;;;4989811;28;20207;-91
2022/11/02 10:11:39;;;;;;;3.88;1.58;;;13.50;99.90;;;;;;4982166;28;20188;-90
2022/11/02 10:14:25;;;;;;;7.97;1.75;;;13.50;99.90;;;;;;4978721;28;20298;-88
2022/11/02 10:16:57;;;;;;;5.95;1.75;;;13.60;99.90;;;;;;4988314;28;20278;-90
2022/11/02 10:19:26;;;;;;;7.57;1.77;;;13.60;99.90;;;;;;4995082;28;20192;-92
2022/11/02 10:21:56;;;;;;;10.40;1.67;;;13.70;99.90;;;;;;4995701;28;20693;-91
2022/11/02 10:24:37;;;;;;;8.57;1.48;;;13.80;99.90;;;;;;5007996;28;20183;-93
2022/11/02 10:27:15;;;;;;;10.25;1.65;;;13.80;99.90;;;;;;4994427;28;20183;-92
2022/11/02 10:30:17;;;;;;;7.55;2.00;;;13.90;99.90;;;;;;4993598;28;20302;-85
2022/11/02 10:32:44;;;;;;;4.95;1.52;;;13.90;99.90;;;;;;4991992;28;20214;-92
2022/11/02 10:35:48;;;;;;;7.90;1.05;;;13.90;99.90;;;;;;4995463;28;20538;-85
2022/11/02 10:38:24;;;;;;;12.82;1.83;;;13.90;99.90;;;;;;4993785;28;20215;-84
2022/11/02 10:41:05;;;;;;;5.85;1.20;;;13.80;99.90;;;;;;4993876;28;20180;-88
2022/11/02 10:43:51;;;;;;;7.15;1.48;;;13.80;99.90;;;;;;4996781;28;20206;-89
2022/11/02 10:46:34;;;;;;;7.32;1.35;;;13.90;99.90;;;;;;5009776;28;20168;-93
2022/11/02 10:49:28;;;;;;;7.00;1.30;;;13.90;99.90;;;;;;4996244;28;20178;-89
2022/11/02 10:51:54;;;;;;;8.00;1.30;;;13.90;99.90;;;;;;5013568;28;20621;-84
2022/11/02 10:54:19;;;;;;;4.25;1.40;;;14.00;99.90;;;;;;5014784;28;20171;-87
2022/11/02 10:56:48;;;;;;;2.30;1.00;;;14.10;99.90;;;;;;5005252;28;20563;-88
2022/11/02 10:59:17;;;;;;;4.70;1.38;;;14.10;99.90;;;;;;4993752;28;20192;-85
2022/11/02 11:01:55;;;;;;;9.13;1.40;;;14.10;99.90;;;;;;4983584;28;20240;-94
2022/11/02 11:04:27;;;;;;;5.97;1.15;;;14.20;99.90;;;;;;4976384;28;20180;-93
2022/11/02 11:06:55;;;;;;;5.28;1.13;;;14.40;99.90;;;;;;4975932;28;20328;-90
2022/11/02 11:09:38;;;;;;;5.50;1.27;;;14.40;99.90;;;;;;4974501;28;20275;-90
2022/11/02 11:12:12;;;;;;;7.88;1.40;;;14.50;99.90;;;;;;4974328;28;20188;-86
2022/11/02 11:14:47;;;;;;;8.18;1.80;;;14.60;99.90;;;;;;4985024;28;20653;-93
2022/11/02 11:17:16;;;;;;;6.93;1.17;;;14.60;99.90;;;;;;4994395;28;20246;-93
2022/11/02 11:19:48;;;;;;;3.72;0.90;;;14.50;99.90;;;;;;4996799;28;20615;-89
2022/11/02 11:22:29;;;;;;;6.20;1.33;;;14.50;99.40;;;;;;4985817;28;20223;-93
2022/11/02 11:25:23;;;;;;;6.05;0.98;;;14.60;99.40;;;;;;4994888;28;20175;-89
2022/11/02 11:27:57;;;;;;;4.18;1.00;;;14.60;99.00;;;;;;4994130;28;20172;-94
2022/11/02 11:30:34;;;;;;;3.47;0.98;;;14.60;99.60;;;;;;4995378;28;20258;-93
2022/11/02 11:33:02;;;;;;;11.07;1.23;;;14.70;99.80;;;;;;4994875;28;20176;-85
2022/11/02 11:35:38;;;;;;;7.60;1.70;;;14.70;98.70;;;;;;4995783;28;20180;-93
2022/11/02 11:38:07;;;;;;;6.88;1.27;;;14.70;98.80;;;;;;4986564;28;20223;-93
2022/11/02 11:40:38;;;;;;;7.30;1.05;;;14.70;99.20;;;;;;4999065;28;20203;-92
2022/11/02 11:43:11;;;;;;;4.45;0.80;;;14.80;99.10;;;;;;4998241;28;20176;-92
2022/11/02 11:45:37;;;;;;;4.28;1.27;;;15.10;98.50;;;;;;4997262;28;20250;-92
2022/11/02 11:48:17;;;;;;;3.70;0.85;;;15.10;97.50;;;;;;4997265;28;20191;-89
2022/11/02 11:50:47;;;;;;;4.97;0.88;;;15.10;97.20;;;;;;4996913;28;20270;-85
2022/11/02 11:53:21;;;;;;;5.07;0.90;;;15.00;97.30;;;;;;4996887;28;20174;-90
2022/11/02 11:55:57;;;;;;;4.82;1.10;;;14.90;97.60;;;;;;4997323;28;20183;-85
2022/11/02 11:58:28;;;;;;;6.53;1.10;;;14.90;96.60;;;;;;4996830;28;20203;-85
2022/11/02 12:01:22;;;;;;;4.68;1.30;;;15.00;97.40;;;;;;4997175;28;20615;-84
2022/11/02 12:04:00;;;;;;;3.80;1.25;;;15.00;97.40;;;;;;4988912;28;20164;-89
2022/11/02 12:06:34;;;;;;;3.28;1.00;;;15.10;97.20;;;;;;4996376;28;20172;-88
2022/11/02 12:09:06;;;;;;;7.03;1.10;;;15.10;97.40;;;;;;4996674;28;20174;-84
2022/11/02 12:11:50;;;;;;;5.53;1.00;;;15.20;97.20;;;;;;4996493;28;20172;-86
2022/11/02 12:14:37;;;;;;;3.20;1.13;;;15.30;97.20;;;;;;4994463;28;20214;-85
2022/11/02 12:17:04;;;;;;;2.88;0.90;;;15.30;96.90;;;;;;4976673;28;20211;-89
2022/11/02 12:19:42;;;;;;;5.97;1.10;;;15.40;97.00;;;;;;4977225;28;20239;-86
2022/11/02 12:22:33;;;;;;;4.38;1.10;;;15.30;96.30;;;;;;4976998;28;20258;-88
2022/11/02 12:25:17;;;;;;;4.80;0.98;;;15.20;95.90;;;;;;4978287;28;20192;-93
2022/11/02 12:27:56;;;;;;;8.25;1.08;;;15.20;95.90;;;;;;4985611;28;20168;-88
2022/11/02 12:30:55;;;;;;;11.38;0.98;;;15.20;96.40;;;;;;4997037;28;20199;-91
2022/11/02 12:33:38;;;;;;;4.22;1.50;;;15.10;96.00;;;;;;4995863;28;20180;-95
2022/11/02 12:36:18;;;;;;;5.70;1.30;;;15.10;96.60;;;;;;5013749;28;20197;-93
2022/11/02 12:39:02;;;;;;;4.68;1.20;;;15.00;95.70;;;;;;4980889;28;20196;-84
2022/11/02 12:41:42;;;;;;;7.93;1.00;;;14.90;95.90;;;;;;4978072;28;20181;-86
2022/11/02 12:44:21;;;;;;;11.93;1.20;;;14.70;96.70;;;;;;5002090;28;20180;-87
2022/11/02 12:47:14;;;;;;;3.47;0.80;;;14.60;96.30;;;;;;4991557;28;20179;-90
2022/11/02 12:50:27;;;;;;;3.05;0.65;;;14.40;97.00;;;;;;4997818;28;20254;-89
2022/11/02 12:53:09;;;;;;;8.32;0.93;;;14.60;96.50;;;;;;4989727;28;20657;-89
2022/11/02 12:55:44;;;;;;;3.05;0.80;;;14.60;96.50;;;;;;4981078;28;20263;-93
2022/11/02 12:58:26;;;;;;;6.35;1.20;;;14.70;96.90;;;;;;4976645;28;20208;-92
2022/11/02 13:00:59;;;;;;;3.60;1.15;;;14.70;96.40;;;;;;4983310;28;20168;-95
2022/11/02 13:03:54;;;;;;;6.15;1.13;;;14.90;95.90;;;;;;4997388;28;20172;-93
2022/11/02 13:06:25;;;;;;;5.80;1.17;;;14.80;96.50;;;;;;4951763;28;20283;-92
2022/11/02 13:09:09;;;;;;;3.72;0.95;;;14.80;96.50;;;;;;4977638;28;20172;-90
2022/11/02 13:11:49;;;;;;;6.72;1.10;;;15.00;96.60;;;;;;4976214;28;20169;-93
2022/11/02 13:14:18;;;;;;;3.80;0.82;;;14.80;96.80;;;;;;4990596;28;20180;-92
2022/11/02 13:17:15;;;;;;;5.63;1.10;;;14.70;96.90;;;;;;4995847;28;20179;-91
2022/11/02 13:19:52;;;;;;;6.72;0.95;;;14.60;97.00;;;;;;4988183;28;20522;-91
2022/11/02 13:22:24;;;;;;;5.70;1.20;;;14.60;97.60;;;;;;4996311;28;20226;-91